Sea Dolphin C — V7XL9 — position and weather

sailwx.info

Track history (hours):
 
Tides and Currents Weather Stations Pressure Air Temp Water Temp Dewpoint Dewpoint Depression Visibility Wind Speed Wind Dir Waves Ship Positions

Sea Dolphin C

Last reported at 2017-Mar-13 17:14 UTC. Time now 2017-Apr-23 12:05 UTC.
Position N 09°11' W 079°53'.
Warning: this ship's position is 40 days out of date.

Length 181 m; draft 10.2 m.

Type: Cargo ship. MMSI: 538004513.

Date/timePositionNaut miles runAvg speedWind from/ knotsBaromVisibWave heightAir tempDewpointWater temp
2017-Mar-13 17:14N 09°11' W 079°53'4 5.3
2017-Mar-13 16:30N 09°13' W 079°56'0 0.1
2017-Mar-13 15:25N 09°13' W 079°56'0 0.0
2017-Mar-13 14:33N 09°13' W 079°56'2 2.2
2017-Mar-13 13:34N 09°15' W 079°55'1 1.3
2017-Mar-13 12:33N 09°17' W 079°55'1 1.4
2017-Mar-13 11:33N 09°18' W 079°55'4 4.2
2017-Mar-13 10:31N 09°22' W 079°56'0 0.0
2017-Mar-13 09:31N 09°22' W 079°56'0 0.0
2017-Mar-13 08:31N 09°22' W 079°56'0 0.0
2017-Mar-13 07:31N 09°22' W 079°56'0 0.0
2017-Mar-13 06:31N 09°22' W 079°56'0 0.0
2017-Mar-13 05:31N 09°22' W 079°56'0 0.0
2017-Mar-13 04:31N 09°22' W 079°56'0 0.0
2017-Mar-13 03:28N 09°22' W 079°56'0 0.0
2017-Mar-13 02:31N 09°22' W 079°56'0 0.0
2017-Mar-13 01:31N 09°22' W 079°56'0 0.0
2017-Mar-13 00:31N 09°22' W 079°56'0 0.0
2017-Mar-12 23:31N 09°22' W 079°56'0 0.0
2017-Mar-12 22:28N 09°22' W 079°56'0 0.0
2017-Mar-12 21:31N 09°22' W 079°56'0 0.0
2017-Mar-12 20:28N 09°22' W 079°56'0 0.0
2017-Mar-12 19:31N 09°22' W 079°56'0 0.0
2017-Mar-12 18:28N 09°22' W 079°56'0 0.0
2017-Mar-12 17:31N 09°22' W 079°56'0 0.0
2017-Mar-12 16:31N 09°22' W 079°56'0 0.0
2017-Mar-12 15:31N 09°22' W 079°56'0 0.1
2017-Mar-12 14:31N 09°22' W 079°56'3 2.7
2017-Mar-12 13:33N 09°25' W 079°55'4 3.3
2017-Mar-12 12:30N 09°28' W 079°57'0 0.0
2017-Mar-12 11:33N 09°28' W 079°57'0 0.0
2017-Mar-12 10:24N 09°28' W 079°57'0 0.0
2017-Mar-12 09:33N 09°28' W 079°57'0 0.0
2017-Mar-12 08:33N 09°28' W 079°57'0 0.0
2017-Mar-12 07:33N 09°28' W 079°57'0 0.0
2017-Mar-12 06:33N 09°28' W 079°57'0 0.0
2017-Mar-12 05:30N 09°28' W 079°57'4 3.8
2017-Mar-12 04:33N 09°30' W 079°55'  
Track history (hours):
 
Tides and Currents Weather Stations Pressure Air Temp Water Temp Dewpoint Dewpoint Depression Visibility Wind Speed Wind Dir Waves Ship Positions

Sea Dolphin C

Last reported at 2017-Mar-13 17:14 UTC. Time now 2017-Apr-23 12:05 UTC.
Position N 09°11' W 079°53'.
Warning: this ship's position is 40 days out of date.

Length 181 m; draft 10.2 m.

Type: Cargo ship. MMSI: 538004513.

Date/timePositionNaut miles runAvg speedWind from/ knotsBaromVisibWave heightAir tempDewpointWater temp
2017-Mar-13 17:14N 09°11' W 079°53'4 5.3
2017-Mar-13 16:30N 09°13' W 079°56'0 0.1
2017-Mar-13 15:25N 09°13' W 079°56'0 0.0
2017-Mar-13 14:33N 09°13' W 079°56'2 2.2
2017-Mar-13 13:34N 09°15' W 079°55'1 1.3
2017-Mar-13 12:33N 09°17' W 079°55'1 1.4
2017-Mar-13 11:33N 09°18' W 079°55'4 4.2
2017-Mar-13 10:31N 09°22' W 079°56'0 0.0
2017-Mar-13 09:31N 09°22' W 079°56'0 0.0
2017-Mar-13 08:31N 09°22' W 079°56'0 0.0
2017-Mar-13 07:31N 09°22' W 079°56'0 0.0
2017-Mar-13 06:31N 09°22' W 079°56'0 0.0
2017-Mar-13 05:31N 09°22' W 079°56'0 0.0
2017-Mar-13 04:31N 09°22' W 079°56'0 0.0
2017-Mar-13 03:28N 09°22' W 079°56'0 0.0
2017-Mar-13 02:31N 09°22' W 079°56'0 0.0
2017-Mar-13 01:31N 09°22' W 079°56'0 0.0
2017-Mar-13 00:31N 09°22' W 079°56'0 0.0
2017-Mar-12 23:31N 09°22' W 079°56'0 0.0
2017-Mar-12 22:28N 09°22' W 079°56'0 0.0
2017-Mar-12 21:31N 09°22' W 079°56'0 0.0
2017-Mar-12 20:28N 09°22' W 079°56'0 0.0
2017-Mar-12 19:31N 09°22' W 079°56'0 0.0
2017-Mar-12 18:28N 09°22' W 079°56'0 0.0
2017-Mar-12 17:31N 09°22' W 079°56'0 0.0
2017-Mar-12 16:31N 09°22' W 079°56'0 0.0
2017-Mar-12 15:31N 09°22' W 079°56'0 0.1
2017-Mar-12 14:31N 09°22' W 079°56'3 2.7
2017-Mar-12 13:33N 09°25' W 079°55'4 3.3
2017-Mar-12 12:30N 09°28' W 079°57'0 0.0
2017-Mar-12 11:33N 09°28' W 079°57'0 0.0
2017-Mar-12 10:24N 09°28' W 079°57'0 0.0
2017-Mar-12 09:33N 09°28' W 079°57'0 0.0
2017-Mar-12 08:33N 09°28' W 079°57'0 0.0
2017-Mar-12 07:33N 09°28' W 079°57'0 0.0
2017-Mar-12 06:33N 09°28' W 079°57'0 0.0
2017-Mar-12 05:30N 09°28' W 079°57'4 3.8
2017-Mar-12 04:33N 09°30' W 079°55'  

Dump ship's entire track history